Time;durP1;ratioP1;P1;durP2;ratioP2;P2;SDS_P1;SDS_P2;PMS_P1;PMS_P2;Temp;Humidity;BMP_temperature;BMP_pressure;BME280_temperature;BME280_humidity;BME280_pressure;Samples;Min_cycle;Max_cycle;Signal;HPM_P1;HPM_P2
2021/03/03 00:00:09;;;;;;;8.10;4.60;;;;;;;-1.49;72.09;97226.15;1827904;78;21130;-69
2021/03/03 00:02:39;;;;;;;5.33;2.63;;;;;;;-1.52;71.86;97225.98;1828005;78;21096;-69
2021/03/03 00:05:09;;;;;;;7.47;4.37;;;;;;;-1.47;71.94;97231.02;1828382;78;21276;-69
2021/03/03 00:07:37;;;;;;;8.33;4.40;;;;;;;-1.48;71.69;97225.36;1828090;78;21118;-69
2021/03/03 00:10:07;;;;;;;9.13;4.20;;;;;;;-1.45;72.31;97229.41;1828108;78;21119;-69
2021/03/03 00:12:35;;;;;;;6.93;3.50;;;;;;;-1.47;72.41;97228.42;1828564;78;21142;-69
2021/03/03 00:15:04;;;;;;;5.63;3.23;;;;;;;-1.46;72.64;97228.02;1828084;78;21545;-69
2021/03/03 00:17:32;;;;;;;8.23;4.70;;;;;;;-1.48;72.57;97228.36;1828124;78;21107;-70
2021/03/03 00:20:01;;;;;;;14.43;7.10;;;;;;;-1.44;72.83;97226.41;1828301;78;21134;-70
2021/03/03 00:22:29;;;;;;;8.07;5.07;;;;;;;-1.43;72.81;97221.32;1828160;78;21130;-70
2021/03/03 00:24:58;;;;;;;8.90;4.13;;;;;;;-1.48;72.79;97221.48;1828139;78;21276;-70
2021/03/03 00:27:26;;;;;;;9.10;4.07;;;;;;;-1.56;72.33;97217.19;1828219;78;21445;-69
2021/03/03 00:29:55;;;;;;;7.97;4.33;;;;;;;-1.47;72.76;97219.77;1824996;78;21146;-69
2021/03/03 00:32:24;;;;;;;8.50;4.67;;;;;;;-1.53;73.54;97209.98;1828660;78;21284;-69
2021/03/03 00:34:52;;;;;;;16.13;9.10;;;;;;;-1.62;73.39;97211.66;1828240;78;21706;-70
2021/03/03 00:37:20;;;;;;;13.40;6.53;;;;;;;-1.56;72.82;97205.95;1828106;78;21121;-69
2021/03/03 00:39:49;;;;;;;11.83;6.80;;;;;;;-1.59;73.15;97207.05;1828143;78;21151;-69
2021/03/03 00:42:17;;;;;;;20.30;9.77;;;;;;;-1.54;73.42;97207.81;1828248;78;21588;-69
2021/03/03 00:44:45;;;;;;;23.80;12.30;;;;;;;-1.53;73.14;97208.70;1828008;78;21587;-69
2021/03/03 00:47:13;;;;;;;18.20;10.17;;;;;;;-1.47;72.79;97206.83;1828209;78;21181;-69
2021/03/03 00:49:42;;;;;;;21.07;10.60;;;;;;;-1.47;72.65;97206.42;1828063;78;21614;-69
2021/03/03 00:52:10;;;;;;;11.17;5.33;;;;;;;-1.61;72.93;97197.93;1828040;78;21134;-69
2021/03/03 00:54:38;;;;;;;8.40;5.27;;;;;;;-1.56;72.57;97200.36;1828562;78;21257;-69
2021/03/03 00:57:07;;;;;;;13.03;6.70;;;;;;;-1.54;72.97;97201.72;1828557;78;21110;-69
2021/03/03 00:59:35;;;;;;;13.77;5.87;;;;;;;-1.62;73.89;97200.02;1827976;78;21130;-69
2021/03/03 01:02:03;;;;;;;16.23;6.27;;;;;;;-1.75;74.29;97209.22;1828592;78;21268;-69
2021/03/03 01:04:31;;;;;;;11.57;4.20;;;;;;;-1.76;73.75;97203.57;1828259;78;21139;-69
2021/03/03 01:07:00;;;;;;;10.53;5.47;;;;;;;-1.80;74.21;97202.49;1828524;78;21115;-69
2021/03/03 01:09:28;;;;;;;12.20;4.60;;;;;;;-1.77;75.14;97206.53;1828217;78;21584;-69
2021/03/03 01:11:56;;;;;;;6.63;3.63;;;;;;;-1.77;74.28;97196.59;1828118;78;21151;-69
2021/03/03 01:14:24;;;;;;;13.27;5.50;;;;;;;-1.74;75.05;97196.75;1828202;78;21675;-70
2021/03/03 01:16:53;;;;;;;10.17;4.87;;;;;;;-1.77;74.87;97205.23;1828321;78;21683;-69
2021/03/03 01:19:24;;;;;;;11.10;5.17;;;;;;;-1.77;74.59;97198.77;1826928;78;21118;-69
2021/03/03 01:21:51;;;;;;;19.33;8.00;;;;;;;-1.79;75.54;97199.49;1828552;78;21103;-69
2021/03/03 01:24:20;;;;;;;15.00;6.63;;;;;;;-1.76;75.02;97200.98;1828240;78;21126;-69
2021/03/03 01:26:48;;;;;;;15.90;7.97;;;;;;;-1.84;75.15;97201.86;1828005;78;21166;-69
2021/03/03 01:29:16;;;;;;;13.43;6.53;;;;;;;-1.84;75.00;97197.98;1828208;78;21162;-69
2021/03/03 01:31:44;;;;;;;12.07;5.47;;;;;;;-1.89;75.25;97189.45;1828087;78;21139;-69
2021/03/03 01:34:12;;;;;;;16.60;7.10;;;;;;;-1.90;74.80;97195.03;1828184;78;21557;-69
2021/03/03 01:36:40;;;;;;;16.53;7.90;;;;;;;-1.97;75.63;97194.20;1828097;78;21126;-69
2021/03/03 01:39:08;;;;;;;12.03;6.37;;;;;;;-2.00;75.36;97191.45;1828082;78;21114;-69
2021/03/03 01:41:36;;;;;;;14.63;7.47;;;;;;;-1.99;75.57;97185.47;1828042;78;21162;-69
2021/03/03 01:44:05;;;;;;;13.07;6.50;;;;;;;-1.94;75.15;97178.88;1828072;78;21165;-70
2021/03/03 01:46:33;;;;;;;18.40;8.07;;;;;;;-1.88;75.34;97177.91;1828300;78;21280;-69
2021/03/03 01:49:01;;;;;;;16.17;7.80;;;;;;;-1.99;75.48;97170.86;1828059;78;21579;-69
2021/03/03 01:51:29;;;;;;;14.53;7.40;;;;;;;-1.95;75.33;97173.20;1828913;78;21150;-69
2021/03/03 01:53:57;;;;;;;15.00;7.63;;;;;;;-2.02;75.10;97168.49;1828089;78;21130;-69
2021/03/03 01:56:25;;;;;;;17.57;7.70;;;;;;;-1.99;75.30;97169.95;1828329;78;21257;-69
2021/03/03 01:58:53;;;;;;;11.80;5.53;;;;;;;-1.94;75.29;97163.73;1827925;78;21145;-69
2021/03/03 02:01:22;;;;;;;11.03;6.07;;;;;;;-1.96;74.99;97167.55;1828019;78;21150;-69
2021/03/03 02:03:50;;;;;;;12.80;7.00;;;;;;;-2.01;74.80;97154.77;1828079;78;21600;-70
2021/03/03 02:06:43;;;;;;;12.30;6.30;;;;;;;-2.00;74.83;97154.84;1828071;78;21182;-70
2021/03/03 02:09:28;;;;;;;13.57;7.47;;;;;;;-2.06;74.91;97156.22;1828277;78;21256;-70
2021/03/03 02:12:08;;;;;;;22.97;10.67;;;;;;;-2.25;75.85;97156.47;1778367;78;21188;-69
2021/03/03 02:14:38;;;;;;;16.37;6.90;;;;;;;-2.25;75.27;97159.06;1828059;78;21703;-69
2021/03/03 02:17:07;;;;;;;10.00;5.67;;;;;;;-2.19;75.96;97167.58;1827978;78;21157;-69
2021/03/03 02:19:38;;;;;;;17.97;8.27;;;;;;;-2.18;76.20;97174.11;1828179;78;21557;-69
2021/03/03 02:22:15;;;;;;;24.47;10.30;;;;;;;-2.13;76.59;97175.66;1828468;78;21276;-69
2021/03/03 02:24:53;;;;;;;14.93;7.30;;;;;;;-2.12;76.16;97176.14;1828088;78;21671;-69
2021/03/03 02:27:22;;;;;;;16.10;7.37;;;;;;;-2.12;76.66;97170.08;1828277;78;21268;-69
2021/03/03 02:29:52;;;;;;;14.60;6.97;;;;;;;-2.12;76.76;97173.55;1825064;78;21166;-69
2021/03/03 02:32:20;;;;;;;14.13;6.83;;;;;;;-2.09;77.00;97171.16;1819355;79;21564;-69
2021/03/03 02:34:49;;;;;;;15.60;7.27;;;;;;;-2.10;76.64;97170.66;1819121;79;21134;-69
2021/03/03 02:37:18;;;;;;;18.70;7.63;;;;;;;-2.13;77.00;97178.25;1819042;79;21166;-69
2021/03/03 02:39:48;;;;;;;20.77;8.70;;;;;;;-2.19;76.98;97175.34;1819339;79;21154;-69
2021/03/03 02:42:19;;;;;;;17.93;9.40;;;;;;;-2.16;76.70;97172.03;1819320;79;21123;-69
2021/03/03 02:44:49;;;;;;;15.80;6.97;;;;;;;-2.20;76.33;97171.84;1818980;79;21120;-69
2021/03/03 02:47:21;;;;;;;24.00;9.50;;;;;;;-2.12;76.46;97170.08;1819320;79;21537;-69
2021/03/03 02:49:50;;;;;;;17.97;8.80;;;;;;;-1.99;76.73;97172.16;1819229;79;21099;-69
2021/03/03 02:52:18;;;;;;;21.50;10.23;;;;;;;-2.03;76.29;97179.25;1819153;79;21533;-69
2021/03/03 02:54:46;;;;;;;13.67;8.73;;;;;;;-1.98;76.14;97176.92;1819852;79;21095;-69
2021/03/03 02:57:13;;;;;;;23.80;10.80;;;;;;;-2.04;76.21;97168.42;1819134;79;21580;-68
2021/03/03 02:59:51;;;;;;;17.17;8.10;;;;;;;-2.07;76.08;97169.94;1819102;79;21143;-69
2021/03/03 03:02:21;;;;;;;17.10;8.20;;;;;;;-2.08;75.83;97177.22;1818737;79;21119;-69
2021/03/03 03:04:52;;;;;;;28.37;10.60;;;;;;;-2.09;75.92;97168.58;1819309;79;21142;-69
2021/03/03 03:07:22;;;;;;;32.30;13.17;;;;;;;-2.16;75.70;97172.03;1819469;79;21109;-69
2021/03/03 03:09:50;;;;;;;51.37;17.77;;;;;;;-2.24;76.48;97171.61;1819341;79;21123;-70
2021/03/03 03:12:20;;;;;;;26.73;11.90;;;;;;;-2.32;76.26;97167.27;1819012;79;21151;-70
2021/03/03 03:14:51;;;;;;;14.70;6.83;;;;;;;-2.36;76.53;97169.21;1819084;79;21115;-69
2021/03/03 03:17:21;;;;;;;32.03;14.20;;;;;;;-2.38;77.53;97170.81;1819243;78;21115;-69
2021/03/03 03:19:52;;;;;;;26.57;12.17;;;;;;;-2.35;76.92;97170.09;1818996;79;21138;-69
2021/03/03 03:22:26;;;;;;;18.97;9.33;;;;;;;-2.33;76.66;97168.09;1819288;79;21122;-69
2021/03/03 03:24:56;;;;;;;18.83;9.10;;;;;;;-2.36;77.10;97169.62;1819553;79;21122;-69
2021/03/03 03:27:26;;;;;;;16.73;7.73;;;;;;;-2.31;76.97;97169.48;1818990;79;21143;-69
2021/03/03 03:29:57;;;;;;;27.73;8.23;;;;;;;-2.33;76.70;97164.62;1821083;78;21142;-69
2021/03/03 03:32:26;;;;;;;20.27;11.43;;;;;;;-2.32;77.02;97167.27;1828070;78;21280;-69
2021/03/03 03:34:55;;;;;;;21.20;10.17;;;;;;;-2.32;76.86;97170.27;1828325;78;21280;-69
2021/03/03 03:37:25;;;;;;;15.93;8.07;;;;;;;-2.33;76.90;97169.38;1828017;78;21138;-69
2021/03/03 03:39:54;;;;;;;16.83;7.93;;;;;;;-2.36;76.79;97165.34;1828339;78;21261;-69
2021/03/03 03:42:24;;;;;;;16.97;9.33;;;;;;;-2.21;76.75;97171.36;1828159;78;21126;-69
2021/03/03 03:44:53;;;;;;;14.27;7.80;;;;;;;-2.10;76.31;97171.95;1828202;78;21695;-69
2021/03/03 03:47:21;;;;;;;67.37;24.97;;;;;;;-2.26;76.43;97169.33;1828181;78;21711;-70
2021/03/03 03:49:50;;;;;;;95.57;36.60;;;;;;;-2.36;76.20;97169.62;1828152;78;21130;-70
2021/03/03 03:52:20;;;;;;;39.47;16.43;;;;;;;-2.47;76.17;97165.12;1828193;78;21126;-69
2021/03/03 03:54:50;;;;;;;23.77;10.83;;;;;;;-2.54;77.85;97170.36;1827995;78;21600;-69
2021/03/03 03:57:20;;;;;;;36.83;15.60;;;;;;;-2.59;78.00;97169.62;1828439;78;21714;-69
2021/03/03 03:59:49;;;;;;;24.43;10.43;;;;;;;-2.47;77.92;97170.28;1828079;78;21149;-69
2021/03/03 04:02:17;;;;;;;21.03;9.03;;;;;;;-2.36;77.69;97167.04;1828302;78;21299;-69
2021/03/03 04:04:46;;;;;;;19.33;9.97;;;;;;;-2.43;77.21;97169.26;1828399;78;21130;-69
2021/03/03 04:07:13;;;;;;;20.93;10.60;;;;;;;-2.32;77.92;97167.27;1828084;78;21150;-69
2021/03/03 04:09:41;;;;;;;16.17;7.53;;;;;;;-2.26;77.69;97161.58;1828175;78;21098;-69
2021/03/03 04:12:09;;;;;;;19.17;8.53;;;;;;;-2.31;77.29;97162.61;1828333;78;21565;-69
2021/03/03 04:14:38;;;;;;;22.97;10.83;;;;;;;-2.33;77.03;97157.75;1828015;78;21295;-68
2021/03/03 04:17:06;;;;;;;23.53;11.67;;;;;;;-2.31;77.43;97152.27;1828576;78;21247;-69
2021/03/03 04:19:34;;;;;;;20.87;9.00;;;;;;;-2.32;76.99;97152.17;1828588;78;21264;-70
2021/03/03 04:22:02;;;;;;;17.03;9.00;;;;;;;-2.41;76.85;97150.86;1828101;78;21138;-69
2021/03/03 04:24:31;;;;;;;28.03;13.27;;;;;;;-2.40;77.53;97147.45;1828672;78;21135;-70
2021/03/03 04:26:59;;;;;;;22.03;10.97;;;;;;;-2.36;77.21;97152.82;1828199;78;21666;-69
2021/03/03 04:29:26;;;;;;;22.27;10.13;;;;;;;-2.43;77.13;97153.75;1828023;78;21115;-69
2021/03/03 04:31:56;;;;;;;52.30;22.50;;;;;;;-2.53;77.25;97152.74;1819600;78;21524;-70
2021/03/03 04:34:25;;;;;;;21.67;10.73;;;;;;;-2.58;77.49;97154.59;1819737;79;21099;-69
2021/03/03 04:36:52;;;;;;;19.40;8.60;;;;;;;-2.57;77.22;97155.98;1819281;79;21130;-69
2021/03/03 04:39:20;;;;;;;15.97;7.33;;;;;;;-2.68;77.43;97159.22;1819241;79;21122;-69
2021/03/03 04:41:48;;;;;;;22.50;11.40;;;;;;;-2.74;78.04;97155.00;1819321;79;21597;-69
2021/03/03 04:44:17;;;;;;;22.97;9.40;;;;;;;-2.70;78.05;97153.47;1819622;79;21264;-69
2021/03/03 04:46:47;;;;;;;14.90;7.47;;;;;;;-2.68;78.19;97157.05;1819059;78;21175;-68
2021/03/03 04:49:15;;;;;;;15.47;7.20;;;;;;;-2.56;77.80;97154.28;1819297;79;21599;-68
2021/03/03 04:51:43;;;;;;;22.80;10.83;;;;;;;-2.40;77.37;97144.87;1819255;79;21182;-65
2021/03/03 04:54:11;;;;;;;19.57;9.90;;;;;;;-2.44;77.59;97147.22;1819651;79;21116;-69
2021/03/03 04:56:39;;;;;;;14.83;7.93;;;;;;;-2.50;77.77;97156.78;1819176;79;21135;-68
2021/03/03 04:59:07;;;;;;;18.80;10.07;;;;;;;-2.54;78.13;97154.86;1819264;79;21612;-68
2021/03/03 05:01:35;;;;;;;14.53;7.07;;;;;;;-2.55;77.47;97163.80;1819002;79;21549;-68
2021/03/03 05:04:06;;;;;;;13.57;6.27;;;;;;;-2.61;77.88;97165.23;1819187;79;21134;-68
2021/03/03 05:06:33;;;;;;;15.40;6.30;;;;;;;-2.64;77.29;97160.30;1819681;79;21281;-69
2021/03/03 05:09:02;;;;;;;13.93;6.70;;;;;;;-2.63;77.45;97159.48;1819187;79;21123;-69
2021/03/03 05:11:32;;;;;;;17.63;8.10;;;;;;;-2.53;77.69;97156.63;1819328;79;21120;-69
2021/03/03 05:14:00;;;;;;;27.67;12.23;;;;;;;-2.45;77.95;97160.93;1819262;79;21592;-69
2021/03/03 05:16:28;;;;;;;28.70;13.90;;;;;;;-2.46;77.64;97163.92;1819128;79;21149;-69
2021/03/03 05:18:56;;;;;;;32.47;14.63;;;;;;;-2.43;77.33;97164.09;1819023;79;21099;-69
2021/03/03 05:21:25;;;;;;;34.10;15.57;;;;;;;-2.44;77.77;97161.03;1819379;79;21564;-68
2021/03/03 05:23:53;;;;;;;29.57;15.10;;;;;;;-2.45;77.65;97168.27;1819273;79;21134;-69
2021/03/03 05:26:21;;;;;;;36.77;17.00;;;;;;;-2.52;77.65;97170.05;1819447;79;21139;-69
2021/03/03 05:28:49;;;;;;;35.03;17.27;;;;;;;-2.46;77.82;97169.09;1819339;79;21162;-68
2021/03/03 05:31:17;;;;;;;32.43;15.90;;;;;;;-2.36;77.58;97174.39;1805649;79;21183;-68
2021/03/03 05:33:47;;;;;;;31.20;15.37;;;;;;;-2.31;77.21;97178.12;1792730;80;21104;-68
2021/03/03 05:36:14;;;;;;;30.00;13.90;;;;;;;-2.36;77.16;97182.14;1795568;80;21139;-68
2021/03/03 05:38:42;;;;;;;59.53;24.97;;;;;;;-2.32;77.16;97184.48;1795266;79;21704;-68
2021/03/03 05:41:10;;;;;;;49.50;20.43;;;;;;;-2.45;77.74;97184.19;1795358;80;21139;-68
2021/03/03 05:43:39;;;;;;;63.83;28.77;;;;;;;-2.46;77.40;97187.59;1795551;79;21578;-68
2021/03/03 05:46:07;;;;;;;63.57;29.07;;;;;;;-2.50;77.82;97189.09;1787206;80;21131;-68
2021/03/03 05:48:47;;;;;;;66.20;29.17;;;;;;;-2.51;78.43;97189.91;1770865;80;21135;-68
2021/03/03 05:51:16;;;;;;;104.97;45.00;;;;;;;-2.34;78.52;97180.54;1770280;80;21113;-70
2021/03/03 05:53:44;;;;;;;58.97;24.30;;;;;;;-2.24;77.98;97175.08;1793567;80;21587;-71
2021/03/03 05:56:12;;;;;;;13.43;6.60;;;;;;;-2.12;77.92;97177.84;1793758;80;21280;-67
2021/03/03 05:58:41;;;;;;;11.90;5.70;;;;;;;-1.98;78.67;97182.09;1793755;80;21152;-69
2021/03/03 06:01:10;;;;;;;78.00;36.13;;;;;;;-1.81;78.51;97175.27;1793636;80;21165;-75
2021/03/03 06:03:40;;;;;;;71.77;33.13;;;;;;;-1.61;78.19;97178.93;1794220;80;21264;-69
2021/03/03 06:06:09;;;;;;;57.47;29.83;;;;;;;-1.50;77.73;97177.79;1795732;80;21154;-71
2021/03/03 06:08:38;;;;;;;54.10;24.27;;;;;;;-1.40;77.49;97176.58;1795644;79;21615;-66
2021/03/03 06:11:06;;;;;;;57.30;27.23;;;;;;;-1.29;77.05;97181.91;1795565;80;21170;-69
2021/03/03 06:13:35;;;;;;;45.77;22.10;;;;;;;-1.26;77.16;97171.73;1795755;80;21146;-68
2021/03/03 06:16:04;;;;;;;41.93;18.53;;;;;;;-1.20;77.02;97168.15;1795413;79;21134;-66
2021/03/03 06:18:33;;;;;;;36.47;19.13;;;;;;;-1.22;77.03;97167.59;1795788;80;21510;-66
2021/03/03 06:21:01;;;;;;;35.53;18.67;;;;;;;-1.23;77.54;97172.30;1795303;80;21166;-64
2021/03/03 06:23:31;;;;;;;31.30;16.63;;;;;;;-1.18;77.43;97165.24;1795548;79;21162;-63
2021/03/03 06:26:07;;;;;;;22.37;11.57;;;;;;;-1.17;77.43;97167.01;1795621;80;21588;-65
2021/03/03 06:28:40;;;;;;;28.27;14.13;;;;;;;-1.10;77.35;97160.04;1795572;80;21101;-65
2021/03/03 06:31:32;;;;;;;;;;;;;;;-0.97;78.02;97164.14;1807909;78;21202;-69
2021/03/03 06:34:20;;;;;;;35.47;18.00;;;;;;;-0.89;77.86;97158.06;1822019;79;20224;-69
2021/03/03 06:36:59;;;;;;;35.53;18.57;;;;;;;-0.80;78.18;97164.13;1822344;79;21683;-65
2021/03/03 06:39:35;;;;;;;37.63;20.73;;;;;;;-0.60;78.88;97158.64;1822345;79;21140;-67
2021/03/03 06:42:09;;;;;;;18.73;8.37;;;;;;;-0.41;78.49;97162.60;1786874;80;21127;-65
2021/03/03 06:44:50;;;;;;;18.13;10.10;;;;;;;-0.41;77.69;97157.41;1787329;80;21135;-68
2021/03/03 06:47:20;;;;;;;62.53;30.77;;;;;;;-0.32;77.72;97151.80;1786981;80;21139;-66
2021/03/03 06:49:51;;;;;;;30.47;15.40;;;;;;;-0.20;77.27;97146.30;1807926;79;21536;-68
2021/03/03 06:52:41;;;;;;;35.23;17.20;;;;;;;-0.09;77.53;97147.30;1824768;79;21125;-67
2021/03/03 06:55:11;;;;;;;54.07;25.80;;;;;;;0.05;77.69;97148.34;1824564;79;21651;-66
2021/03/03 06:57:40;;;;;;;58.63;27.60;;;;;;;0.25;76.72;97147.97;1824468;78;21563;-64
2021/03/03 07:00:10;;;;;;;47.93;23.23;;;;;;;0.49;76.00;97148.22;1824532;79;21129;-65
2021/03/03 07:02:38;;;;;;;59.87;26.53;;;;;;;0.65;75.68;97149.37;1824216;78;22139;-64
2021/03/03 07:05:11;;;;;;;39.73;20.63;;;;;;;0.89;75.62;97146.98;1824316;78;21153;-69
2021/03/03 07:07:39;;;;;;;25.77;12.87;;;;;;;1.15;75.10;97144.61;1824720;79;21536;-67
2021/03/03 07:10:09;;;;;;;16.40;7.50;;;;;;;1.38;73.33;97137.36;1823378;78;21748;-68
2021/03/03 07:12:49;;;;;;;16.97;7.80;;;;;;;1.61;71.15;97137.41;1823527;78;21141;-68
2021/03/03 07:15:17;;;;;;;25.40;10.80;;;;;;;1.83;69.78;97133.55;1823448;78;21181;-64
2021/03/03 07:17:46;;;;;;;22.57;9.63;;;;;;;2.03;68.56;97131.73;1824450;78;21125;-63
2021/03/03 07:20:17;;;;;;;31.03;13.10;;;;;;;2.21;68.76;97132.86;1824569;78;21141;-64
2021/03/03 07:22:51;;;;;;;22.80;10.17;;;;;;;2.36;69.24;97128.23;1824573;78;21113;-66
2021/03/03 07:25:21;;;;;;;30.03;15.03;;;;;;;2.51;68.95;97125.31;1824674;79;21520;-67
2021/03/03 07:27:51;;;;;;;25.53;12.40;;;;;;;2.66;68.84;97124.11;1824407;79;21090;-65
2021/03/03 07:30:23;;;;;;;132.00;36.33;;;;;;;2.79;67.75;97123.30;1824627;79;21094;-63
2021/03/03 07:32:53;;;;;;;108.15;37.17;;;;;;;2.96;67.76;97117.81;1828591;78;21141;-65
2021/03/03 07:35:23;;;;;;;79.17;34.33;;;;;;;3.14;67.39;97114.53;1827333;78;21551;-72
2021/03/03 07:37:56;;;;;;;57.40;27.13;;;;;;;3.31;66.87;97112.52;1828776;78;21121;-65
2021/03/03 07:40:27;;;;;;;98.50;42.38;;;;;;;3.47;66.26;97108.26;1828866;78;21527;-69
2021/03/03 07:43:00;;;;;;;85.00;40.87;;;;;;;3.63;66.45;97111.41;1828848;78;21113;-71
2021/03/03 07:45:42;;;;;;;81.45;33.55;;;;;;;3.79;65.52;97104.52;1828628;78;21584;-68
2021/03/03 07:48:12;;;;;;;258.83;126.00;;;;;;;3.98;64.51;97097.25;1828703;78;21500;-66
2021/03/03 07:50:42;;;;;;;86.67;44.70;;;;;;;4.19;63.21;97098.35;1828593;78;21678;-66
2021/03/03 07:53:12;;;;;;;35.00;18.53;;;;;;;4.43;63.80;97100.36;1828527;78;21152;-67
2021/03/03 07:55:41;;;;;;;26.63;16.97;;;;;;;4.79;63.46;97087.91;1828594;78;21137;-66
2021/03/03 07:58:11;;;;;;;11.77;5.70;;;;;;;5.16;61.52;97084.52;1828629;78;21271;-65
2021/03/03 08:00:41;;;;;;;18.00;8.53;;;;;;;5.46;59.58;97083.98;1828591;78;21121;-66
2021/03/03 08:03:10;;;;;;;17.53;9.70;;;;;;;5.74;57.90;97086.85;1828510;78;21251;-65
2021/03/03 08:05:40;;;;;;;20.07;11.00;;;;;;;5.97;56.23;97083.09;1783573;80;21138;-66
2021/03/03 08:08:27;;;;;;;21.53;11.07;;;;;;;6.16;55.65;97081.77;1783751;80;21303;-66
2021/03/03 08:10:47;;;;;;;22.47;10.33;;;;;;;6.34;54.70;97072.53;1754386;82;21310;-65
2021/03/03 08:13:35;;;;;;;22.00;11.57;;;;;;;6.50;54.24;97074.61;1783107;80;21152;-64
2021/03/03 08:16:06;;;;;;;18.73;10.87;;;;;;;6.64;53.55;97071.86;1756051;81;21236;-64
2021/03/03 08:18:37;;;;;;;26.27;13.40;;;;;;;6.82;53.65;97073.97;1783478;80;21737;-65
2021/03/03 08:21:14;;;;;;;22.73;11.73;;;;;;;6.96;53.57;97069.44;1753762;82;21282;-65
2021/03/03 08:23:46;;;;;;;23.03;12.43;;;;;;;7.10;52.01;97063.56;1783356;80;21141;-69
2021/03/03 08:26:29;;;;;;;23.90;12.75;;;;;;;7.26;52.06;97059.50;1755907;82;21124;-65
2021/03/03 08:29:14;;;;;;;18.45;11.12;;;;;;;7.43;52.35;97062.39;1783637;80;21114;-65
2021/03/03 08:31:42;;;;;;;17.37;9.00;;;;;;;7.57;50.28;97054.33;1747053;81;21708;-66
2021/03/03 08:34:11;;;;;;;23.67;12.67;;;;;;;7.73;51.41;97058.52;1755994;81;21712;-65
2021/03/03 08:36:46;;;;;;;22.83;12.53;;;;;;;7.86;50.80;97051.70;1783886;80;21141;-66
2021/03/03 08:39:22;;;;;;;21.80;11.60;;;;;;;8.02;50.19;97056.34;1756199;82;21120;-66
2021/03/03 08:41:50;;;;;;;20.50;10.20;;;;;;;8.16;49.24;97056.09;1783436;80;21265;-65
2021/03/03 08:44:19;;;;;;;22.43;11.30;;;;;;;8.37;48.89;97062.11;1756058;81;21133;-64
2021/03/03 08:46:49;;;;;;;21.37;11.03;;;;;;;8.49;47.22;97049.56;1783528;80;21393;-66
2021/03/03 08:49:27;;;;;;;20.23;10.90;;;;;;;8.61;46.44;97053.66;1755953;81;21287;-66
2021/03/03 08:52:11;;;;;;;18.83;10.20;;;;;;;8.73;45.39;97045.48;1783501;80;21249;-64
2021/03/03 08:54:45;;;;;;;23.63;9.77;;;;;;;8.86;45.96;97039.48;1747221;82;21311;-68
2021/03/03 08:57:33;;;;;;;26.07;10.20;;;;;;;9.00;46.09;97030.44;1756108;82;21578;-65
2021/03/03 09:00:05;;;;;;;22.53;11.23;;;;;;;9.16;44.79;97031.03;1783513;80;21264;-68
2021/03/03 09:02:38;;;;;;;17.87;9.97;;;;;;;9.34;45.13;97034.72;1756095;82;21121;-66
2021/03/03 09:05:12;;;;;;;18.20;9.25;;;;;;;9.45;43.60;97031.73;1756491;82;21550;-66
2021/03/03 09:07:41;;;;;;;19.20;10.87;;;;;;;9.56;44.05;97028.77;1756020;82;21306;-66
2021/03/03 09:10:15;;;;;;;18.07;9.20;;;;;;;9.66;42.70;97027.09;1783725;80;21275;-63
2021/03/03 09:12:45;;;;;;;21.10;11.33;;;;;;;9.80;43.29;97028.50;1756254;82;21258;-64
2021/03/03 09:15:16;;;;;;;20.17;10.57;;;;;;;9.93;42.91;97028.63;1783591;80;21264;-66
2021/03/03 09:17:45;;;;;;;19.40;10.60;;;;;;;10.05;43.88;97020.33;1755871;81;21689;-64
2021/03/03 09:20:17;;;;;;;16.83;9.30;;;;;;;10.18;41.43;97020.87;1756087;82;21243;-63
2021/03/03 09:22:47;;;;;;;18.43;9.07;;;;;;;10.24;42.53;97017.38;1756079;81;21243;-62
2021/03/03 09:25:20;;;;;;;19.60;10.50;;;;;;;10.33;41.34;97019.67;1755932;82;21270;-65
2021/03/03 09:27:58;;;;;;;21.17;10.87;;;;;;;10.52;42.23;97015.79;1783440;80;21719;-61
2021/03/03 09:30:30;;;;;;;21.63;11.30;;;;;;;10.67;41.14;97014.53;1756095;82;21121;-65
2021/03/03 09:33:03;;;;;;;25.93;9.90;;;;;;;10.78;41.33;97018.08;1781564;80;21312;-65
2021/03/03 09:35:33;;;;;;;22.80;9.93;;;;;;;10.90;40.95;97017.23;1754687;82;21117;-65
2021/03/03 09:38:01;;;;;;;28.87;10.90;;;;;;;11.03;39.89;97016.83;1824548;78;21587;-67
2021/03/03 09:40:33;;;;;;;17.87;9.10;;;;;;;11.17;40.12;97019.08;1824850;79;21548;-64
2021/03/03 09:43:03;;;;;;;23.37;9.40;;;;;;;11.33;39.14;97017.78;1824842;79;21110;-65
2021/03/03 09:45:30;;;;;;;15.60;7.53;;;;;;;11.53;40.58;97018.67;1824537;78;21132;-64
2021/03/03 09:47:59;;;;;;;26.00;9.43;;;;;;;11.70;38.78;97014.27;1824495;78;21129;-63
2021/03/03 09:50:30;;;;;;;15.97;7.83;;;;;;;11.91;38.69;97016.48;1824929;79;21571;-64
2021/03/03 09:52:59;;;;;;;26.93;10.40;;;;;;;12.08;37.15;97015.16;1824694;79;21121;-68
2021/03/03 09:55:37;;;;;;;17.50;8.27;;;;;;;12.13;37.42;97003.67;1824766;79;21126;-72
2021/03/03 09:58:06;;;;;;;10.17;6.23;;;;;;;12.10;37.02;97014.27;1824680;78;21240;-71
2021/03/03 10:00:40;;;;;;;14.50;7.57;;;;;;;12.25;37.18;97009.39;1824582;78;21279;-68
2021/03/03 10:03:14;;;;;;;17.37;8.67;;;;;;;12.36;35.52;97008.02;1824546;78;21137;-66
2021/03/03 10:05:44;;;;;;;16.77;8.00;;;;;;;12.43;35.94;97007.13;1824698;79;21530;-65
2021/03/03 10:08:15;;;;;;;13.53;7.60;;;;;;;12.53;35.90;97007.98;1824611;78;21130;-65
2021/03/03 10:10:51;;;;;;;14.53;8.47;;;;;;;12.61;35.03;97015.44;1824633;78;21536;-65
2021/03/03 10:13:21;;;;;;;14.03;7.50;;;;;;;12.61;35.41;97008.82;1824464;78;21125;-65
2021/03/03 10:15:49;;;;;;;16.50;7.97;;;;;;;12.72;36.08;97003.47;1824847;79;21126;-65
2021/03/03 10:18:17;;;;;;;15.33;8.60;;;;;;;12.73;34.43;97002.61;1824358;79;21626;-65
2021/03/03 10:20:54;;;;;;;13.90;7.23;;;;;;;12.85;35.90;97001.23;1824304;79;21138;-65
2021/03/03 10:23:30;;;;;;;8.77;5.57;;;;;;;13.04;35.92;96999.80;1825011;79;21082;-65
2021/03/03 10:26:06;;;;;;;11.90;6.50;;;;;;;13.19;33.86;97007.20;1824881;78;21098;-65
2021/03/03 10:28:36;;;;;;;17.97;7.40;;;;;;;13.31;33.10;96991.70;1824796;79;21537;-65
2021/03/03 10:31:08;;;;;;;13.13;7.80;;;;;;;13.39;32.88;97000.47;1824817;78;21114;-65
2021/03/03 10:33:41;;;;;;;14.60;7.53;;;;;;;13.45;32.75;96990.71;1804256;79;21137;-65
2021/03/03 10:36:18;;;;;;;12.93;5.73;;;;;;;13.60;34.93;96995.44;1824826;79;21105;-65
2021/03/03 10:38:53;;;;;;;10.73;5.57;;;;;;;13.55;30.13;96989.75;1824794;79;21117;-65
2021/03/03 10:41:30;;;;;;;9.57;5.13;;;;;;;13.46;30.59;96983.21;1824313;78;21512;-65
2021/03/03 10:44:01;;;;;;;12.03;6.67;;;;;;;13.63;29.50;96978.20;1824799;79;21528;-65
2021/03/03 10:46:30;;;;;;;13.00;6.20;;;;;;;13.62;29.23;96978.20;1824602;79;21574;-65
2021/03/03 10:49:14;;;;;;;19.17;9.07;;;;;;;13.76;32.46;96974.13;1824558;79;21110;-65
2021/03/03 10:51:43;;;;;;;14.60;7.80;;;;;;;14.10;31.03;96958.73;1823724;78;21113;-65
2021/03/03 10:54:11;;;;;;;11.20;6.77;;;;;;;14.57;30.02;96966.64;1824691;78;21106;-65
2021/03/03 10:56:44;;;;;;;23.53;9.63;;;;;;;15.03;29.81;96958.50;1824452;79;21129;-65
2021/03/03 10:59:30;;;;;;;;;;;;;;;15.41;29.74;96951.73;1827679;79;21137;-65
2021/03/03 11:01:59;;;;;;;12.93;7.27;;;;;;;15.49;28.55;96950.69;1824582;79;20471;-65
2021/03/03 11:04:41;;;;;;;15.03;8.33;;;;;;;16.04;29.42;96938.24;1824502;78;21516;-65
2021/03/03 11:07:11;;;;;;;15.38;8.50;;;;;;;16.60;28.50;96940.23;1824570;78;21129;-65
2021/03/03 11:09:39;;;;;;;12.75;8.55;;;;;;;16.83;27.56;96933.14;1824459;78;21133;-65
2021/03/03 11:12:09;;;;;;;17.23;9.20;;;;;;;17.13;26.97;96928.00;1824690;79;21118;-66
2021/03/03 11:14:38;;;;;;;17.07;8.85;;;;;;;17.37;26.89;96924.36;1824822;79;21122;-65
2021/03/03 11:17:06;;;;;;;15.68;9.10;;;;;;;17.78;26.54;96911.76;1824452;78;21121;-66
2021/03/03 11:19:35;;;;;;;14.70;6.97;;;;;;;17.78;24.64;96910.42;1824453;78;21121;-66
2021/03/03 11:22:04;;;;;;;19.10;8.53;;;;;;;17.83;26.05;96909.88;1824560;78;21721;-66
2021/03/03 11:24:32;;;;;;;14.68;7.20;;;;;;;18.32;24.23;96904.52;1824391;78;21121;-66
2021/03/03 11:27:00;;;;;;;12.37;6.87;;;;;;;18.39;22.85;96904.77;1824580;79;21129;-66
2021/03/03 11:29:33;;;;;;;13.13;8.18;;;;;;;18.53;23.43;96902.58;1824790;79;21109;-66
2021/03/03 11:32:02;;;;;;;16.35;9.48;;;;;;;18.45;23.26;96901.06;1821361;78;21567;-66
2021/03/03 11:34:31;;;;;;;16.35;9.75;;;;;;;18.79;23.69;96895.61;1824579;78;21559;-66
2021/03/03 11:37:00;;;;;;;23.40;15.72;;;;;;;19.20;23.16;96886.75;1824427;78;21162;-66
2021/03/03 11:39:28;;;;;;;12.23;8.45;;;;;;;19.35;21.30;96874.24;1824648;78;21141;-66